Yeovilton

ADDS - METARS form results

Output produced by METARs form (1228 UTC 18 April 2019)
found at http://www.aviationweather.gov/metar/data/
 
METAR text: EGDY 181150Z 08010KT 8000 HZ BKN200 18/11 Q1021 BLU NOSIG
Conditions at: EGDY (YEOVILTON (NAVY), GB) observed 1150 UTC 18 April 2019
Temperature: 18.0°C (64°F)
Dewpoint: 11.0°C (52°F) [RH = 64%]
Pressure (altimeter): 30.15 inches Hg (1021.0 mb)
Winds: from the E (80 degrees) at 12 MPH (10 knots; 5.1 m/s)
Visibility: 5 miles ( 8 km)
Ceiling: 20000 feet AGL
Clouds: broken clouds at 20000 feet AGL
Weather: HZ  (haze)

METAR text: EGDY 181136Z 08010KT 8000 HZ BKN200 18/11 Q1021 BLU NOSIG
Conditions at: EGDY (YEOVILTON (NAVY), GB) observed 1136 UTC 18 April 2019
Temperature: 18.0°C (64°F)
Dewpoint: 11.0°C (52°F) [RH = 64%]
Pressure (altimeter): 30.15 inches Hg (1021.0 mb)
Winds: from the E (80 degrees) at 12 MPH (10 knots; 5.1 m/s)
Visibility: 5 miles ( 8 km)
Ceiling: 20000 feet AGL
Clouds: broken clouds at 20000 feet AGL
Weather: HZ  (haze)

Forecast for: EGDY (YEOVILTON (NAVY), GB)
Text: TAF EGDY 181025Z 1812/1821 10012KT 6000 HZ NSC
Forecast period: 1200 to 2100 UTC 18 April 2019
Forecast type: FROM: standard forecast or significant change
Winds: from the E (100 degrees) at 14 MPH (12 knots; 6.2 m/s)
Visibility: 4 miles (6 km)
Ceiling: unknown
Clouds: missing
Weather: HZ  (haze)
Text: TEMPO 1812/1821 8000
Forecast period: 1200 to 2100 UTC 18 April 2019
Forecast type: TEMPORARY: The following changes expected for less than half the time period
Visibility: 5 miles (8 km)
Ceiling: unknown
Clouds: missing
Weather: no significant weather forecast for this period


Bournemouth

ADDS - METARS form results

Output produced by METARs form (1228 UTC 18 April 2019)
found at http://www.aviationweather.gov/metar/data/
 
METAR text: EGHH 181220Z 10015KT 9999 FEW035 19/08 Q1021
Conditions at: EGHH (BOURNEMOUTH AIRP, GB) observed 1220 UTC 18 April 2019
Temperature: 19.0°C (66°F)
Dewpoint: 8.0°C (46°F) [RH = 49%]
Pressure (altimeter): 30.15 inches Hg (1021.0 mb)
Winds: from the E (100 degrees) at 17 MPH (15 knots; 7.7 m/s)
Visibility: 6 or more miles (10+ km)
Ceiling: at least 12,000 feet AGL
Clouds: few clouds at 3500 feet AGL
Weather: no significant weather observed at this time

METAR text: EGHH 181150Z 10015KT 050V140 CAVOK 19/09 Q1021
Conditions at: EGHH (BOURNEMOUTH AIRP, GB) observed 1150 UTC 18 April 2019
Temperature: 19.0°C (66°F)
Dewpoint: 9.0°C (48°F) [RH = 52%]
Pressure (altimeter): 30.15 inches Hg (1021.0 mb)
Winds: from the E (100 degrees) at 17 MPH (15 knots; 7.7 m/s)
Visibility: 6 or more miles (10+ km)
Ceiling: ceiling and visibility are OK
Clouds: unknown
Weather: no significant weather observed at this time

Forecast for: EGHH (BOURNEMOUTH AIRP, GB)
Text: TAF EGHH 181105Z 1812/1821 08010KT CAVOK
Forecast period: 1200 to 2100 UTC 18 April 2019
Forecast type: FROM: standard forecast or significant change
Winds: from the E (80 degrees) at 12 MPH (10 knots; 5.1 m/s)
Visibility: 6 or more miles 10+ km)
Ceiling: unknown
Clouds: missing
Weather: NSW  (no significant weather)


Boscombe

ADDS - METARS form results

Output produced by METARs form (1228 UTC 18 April 2019)
found at http://www.aviationweather.gov/metar/data/
 
METAR text: EGDM 181150Z 08011KT 8000 HZ BKN200 17/10 Q1022 BLU NOSIG
Conditions at: EGDM (BOSCOMBE DOWN , GB) observed 1150 UTC 18 April 2019
Temperature: 17.0°C (63°F)
Dewpoint: 10.0°C (50°F) [RH = 63%]
Pressure (altimeter): 30.18 inches Hg (1022.0 mb)
Winds: from the E (80 degrees) at 13 MPH (11 knots; 5.7 m/s)
Visibility: 5 miles ( 8 km)
Ceiling: 20000 feet AGL
Clouds: broken clouds at 20000 feet AGL
Weather: HZ  (haze)

Forecast for: EGDM (BOSCOMBE DOWN , GB)
Text: TAF EGDM 181023Z 1812/1818 08010KT 9000 HZ FEW030
Forecast period: 1200 to 1800 UTC 18 April 2019
Forecast type: FROM: standard forecast or significant change
Winds: from the E (80 degrees) at 12 MPH (10 knots; 5.1 m/s)
Visibility: 6 miles (9 km)
Ceiling: at least 12,000 feet AGL
Clouds: few clouds at 3000 feet AGL
Weather: HZ  (haze)


Bristol

ADDS - METARS form results

Output produced by METARs form (1228 UTC 18 April 2019)
found at http://www.aviationweather.gov/metar/data/
 
METAR text: EGGD 181220Z AUTO 08011KT 9999 NCD 17/10 Q1022
Conditions at: EGGD (BRISTOL/LULSGATE, GB) observed 1220 UTC 18 April 2019
Temperature: 17.0°C (63°F)
Dewpoint: 10.0°C (50°F) [RH = 63%]
Pressure (altimeter): 30.18 inches Hg (1022.0 mb)
Winds: from the E (80 degrees) at 13 MPH (11 knots; 5.7 m/s)
Visibility: 6 or more miles (10+ km)
Ceiling: at least 12,000 feet AGL
Clouds: sky clear below 12,000 feet AGL
Weather: no significant weather observed at this time

METAR text: EGGD 181150Z AUTO 08011KT 8000 NCD 16/10 Q1022
Conditions at: EGGD (BRISTOL/LULSGATE, GB) observed 1150 UTC 18 April 2019
Temperature: 16.0°C (61°F)
Dewpoint: 10.0°C (50°F) [RH = 68%]
Pressure (altimeter): 30.18 inches Hg (1022.0 mb)
Winds: from the E (80 degrees) at 13 MPH (11 knots; 5.7 m/s)
Visibility: 5 miles ( 8 km)
Ceiling: at least 12,000 feet AGL
Clouds: sky clear below 12,000 feet AGL
Weather: no significant weather observed at this time

Forecast for: EGGD (BRISTOL/LULSGATE, GB)
Text: TAF EGGD 181100Z 1812/1912 08009KT 6000 FEW040
Forecast period: 1200 to 1600 UTC 18 April 2019
Forecast type: FROM: standard forecast or significant change
Winds: from the E (80 degrees) at 10 MPH (9 knots; 4.6 m/s)
Visibility: 4 miles (6 km)
Ceiling: at least 12,000 feet AGL
Clouds: few clouds at 4000 feet AGL
Weather: no significant weather forecast for this period
Text: TEMPO 1812/1816 9999
Forecast period: 1200 to 1600 UTC 18 April 2019
Forecast type: TEMPORARY: The following changes expected for less than half the time period
Visibility: 6 or more miles 10+ km)
Ceiling: unknown
Clouds: missing
Weather: no significant weather forecast for this period
Text: BECMG 1816/1819 9999
Forecast period: 1600 UTC 18 April 2019 to 1200 UTC 19 April 2019
Forecast type: BECOMING: Conditions expected to become as follows by 1900 UTC 18 April 2019
Winds: from the E (80 degrees) at 10 MPH (9 knots; 4.6 m/s)
Visibility: 6 or more miles 10+ km)
Ceiling: at least 12,000 feet AGL
Clouds: few clouds at 4000 feet AGL
Weather: no significant weather forecast for this period
Text: PROB30 1819/1908 7000
Forecast period: 1900 UTC 18 April 2019 to 0800 UTC 19 April 2019
Forecast type: PROBABLE: 30 percent likelihood of the following during this time
Visibility: 4 miles (7 km)
Ceiling: unknown
Clouds: missing
Weather: no significant weather forecast for this period






Experience Flights